createdAt,value
2023-05-05T00:01:59.185Z,0.97
2023-05-05T00:04:29.165Z,0.97
2023-05-05T00:06:57.323Z,1.20
2023-05-05T00:09:25.162Z,1.40
2023-05-05T00:11:53.009Z,1.70
2023-05-05T00:14:22.184Z,1.60
2023-05-05T00:16:49.918Z,1.60
2023-05-05T00:19:17.769Z,1.27
2023-05-05T00:21:45.478Z,1.30
2023-05-05T00:24:13.170Z,1.20
2023-05-05T00:26:40.960Z,1.40
2023-05-05T00:29:08.744Z,1.10
2023-05-05T00:31:38.067Z,1.30
2023-05-05T00:34:06.382Z,1.27
2023-05-05T00:36:34.328Z,1.17
2023-05-05T00:39:02.088Z,1.20
2023-05-05T00:41:29.876Z,1.00
2023-05-05T00:43:57.580Z,1.00
2023-05-05T00:46:27.123Z,0.90
2023-05-05T00:48:56.459Z,0.90
2023-05-05T00:51:25.618Z,1.20
2023-05-05T00:53:53.747Z,1.13
2023-05-05T00:56:23.254Z,1.00
2023-05-05T00:58:51.073Z,1.00
2023-05-05T01:01:19.022Z,1.00
2023-05-05T01:03:46.987Z,1.10
2023-05-05T01:06:38.858Z,1.10
2023-05-05T01:09:12.852Z,1.00
2023-05-05T01:11:47.309Z,1.20
2023-05-05T01:14:18.249Z,1.10
2023-05-05T01:16:57.112Z,1.10
2023-05-05T01:20:00.181Z,1.37
2023-05-05T01:22:37.548Z,1.60
2023-05-05T01:25:17.984Z,1.80
2023-05-05T01:28:01.968Z,1.50
2023-05-05T01:30:58.086Z,1.60
2023-05-05T01:33:32.590Z,1.60
2023-05-05T01:36:06.132Z,1.53
2023-05-05T01:38:40.433Z,1.50
2023-05-05T01:41:14.147Z,1.57
2023-05-05T01:43:43.904Z,1.43
2023-05-05T01:46:13.245Z,1.43
2023-05-05T01:48:43.793Z,1.20
2023-05-05T01:51:13.007Z,1.47
2023-05-05T01:53:41.564Z,1.40
2023-05-05T01:56:10.567Z,1.00
2023-05-05T01:58:39.286Z,1.40
2023-05-05T02:01:07.614Z,1.33
2023-05-05T02:03:38.819Z,1.60
2023-05-05T02:06:09.354Z,1.30
2023-05-05T02:08:39.221Z,1.30
2023-05-05T02:11:08.096Z,1.50
2023-05-05T02:13:37.737Z,1.30
2023-05-05T02:16:08.482Z,1.40
2023-05-05T02:18:36.910Z,1.40
2023-05-05T02:21:05.083Z,1.77
2023-05-05T02:23:34.363Z,2.50
2023-05-05T02:26:07.332Z,2.40
2023-05-05T02:28:42.005Z,2.53
2023-05-05T02:31:10.786Z,3.23
2023-05-05T02:33:41.358Z,3.83
2023-05-05T02:36:15.844Z,3.73
2023-05-05T02:38:46.943Z,3.93
2023-05-05T02:41:19.313Z,5.07
2023-05-05T02:43:49.594Z,5.13
2023-05-05T02:46:17.696Z,5.37
2023-05-05T02:48:46.274Z,5.70
2023-05-05T02:51:14.025Z,5.60
2023-05-05T02:53:41.886Z,6.00
2023-05-05T02:56:18.993Z,5.80
2023-05-05T02:58:55.475Z,5.77
2023-05-05T03:01:30.339Z,6.23
2023-05-05T03:04:05.638Z,6.63
2023-05-05T03:06:40.581Z,6.00
2023-05-05T03:09:11.816Z,6.27
2023-05-05T03:11:45.012Z,6.80
2023-05-05T03:14:17.342Z,7.10
2023-05-05T03:16:46.780Z,7.37
2023-05-05T03:19:19.546Z,7.00
2023-05-05T03:21:47.524Z,7.37
2023-05-05T03:24:16.560Z,7.13
2023-05-05T03:26:47.626Z,7.03
2023-05-05T03:29:15.802Z,6.93
2023-05-05T03:31:43.603Z,7.07
2023-05-05T03:34:11.459Z,7.10
2023-05-05T03:36:39.743Z,7.20
2023-05-05T03:39:07.816Z,7.77
2023-05-05T03:41:35.884Z,7.93
2023-05-05T03:44:05.312Z,8.20
2023-05-05T03:46:33.064Z,7.87
2023-05-05T03:49:00.900Z,7.47
2023-05-05T03:51:28.649Z,7.43
2023-05-05T03:53:56.500Z,7.27
2023-05-05T03:56:24.270Z,7.87
2023-05-05T03:58:52.035Z,7.80
2023-05-05T04:01:21.196Z,8.20
2023-05-05T04:03:49.035Z,7.37
2023-05-05T04:06:16.920Z,7.87
2023-05-05T04:08:44.721Z,8.60
2023-05-05T04:11:12.552Z,8.23
2023-05-05T04:13:40.304Z,7.93
2023-05-05T04:16:08.808Z,8.50
2023-05-05T04:18:38.243Z,8.80
2023-05-05T04:21:06.002Z,8.53
2023-05-05T04:23:33.790Z,8.50
2023-05-05T04:26:03.155Z,8.90
2023-05-05T04:28:30.987Z,8.37
2023-05-05T04:30:59.369Z,8.47
2023-05-05T04:33:27.167Z,8.10
2023-05-05T04:35:56.277Z,9.23
2023-05-05T04:38:24.149Z,9.43
2023-05-05T04:40:51.860Z,8.80
2023-05-05T04:43:19.830Z,9.70
2023-05-05T04:45:54.524Z,9.73
2023-05-05T04:48:22.280Z,9.27
2023-05-05T04:50:51.459Z,9.20
2023-05-05T04:53:20.587Z,9.97
2023-05-05T04:55:48.444Z,10.57
2023-05-05T04:58:16.247Z,10.57
2023-05-05T05:00:44.059Z,11.47
2023-05-05T05:03:12.157Z,10.83
2023-05-05T05:05:40.042Z,10.33
2023-05-05T05:08:07.825Z,11.10
2023-05-05T05:10:37.349Z,10.43
2023-05-05T05:13:05.168Z,11.70
2023-05-05T05:15:33.021Z,10.77
2023-05-05T05:18:00.907Z,11.23
2023-05-05T05:20:30.687Z,10.87
2023-05-05T05:22:58.515Z,11.20
2023-05-05T05:25:26.334Z,10.23
2023-05-05T05:28:08.753Z,11.47
2023-05-05T05:30:37.731Z,11.03
2023-05-05T05:33:05.559Z,10.53
2023-05-05T05:35:33.415Z,10.70
2023-05-05T05:38:01.340Z,10.27
2023-05-05T05:40:29.147Z,9.27
2023-05-05T05:42:58.294Z,9.87
2023-05-05T05:45:26.161Z,9.13
2023-05-05T05:47:53.911Z,9.67
2023-05-05T05:50:21.816Z,8.07
2023-05-05T05:52:49.607Z,7.73
2023-05-05T05:55:17.567Z,8.47
2023-05-05T05:57:45.339Z,7.90
2023-05-05T06:00:16.822Z,7.47
2023-05-05T06:02:44.667Z,7.77
2023-05-05T06:05:13.116Z,7.07
2023-05-05T06:07:40.966Z,7.83
2023-05-05T06:10:25.930Z,7.60
2023-05-05T06:12:55.823Z,6.30
2023-05-05T06:15:25.870Z,6.20
2023-05-05T06:17:53.813Z,7.47
2023-05-05T06:20:21.578Z,6.10
2023-05-05T06:22:49.495Z,5.83
2023-05-05T06:25:17.354Z,6.10
2023-05-05T06:27:45.109Z,6.40
2023-05-05T06:30:14.759Z,6.10
2023-05-05T06:32:43.948Z,6.90
2023-05-05T06:35:11.760Z,6.17
2023-05-05T06:37:39.628Z,7.30
2023-05-05T06:40:09.362Z,7.30
2023-05-05T06:42:37.406Z,7.23
2023-05-05T06:45:05.688Z,6.97
2023-05-05T06:47:33.458Z,7.10
2023-05-05T06:50:02.636Z,6.60
2023-05-05T06:52:30.497Z,5.90
2023-05-05T06:54:58.256Z,6.20
2023-05-05T06:57:26.148Z,6.00
2023-05-05T06:59:54.961Z,5.53
2023-05-05T07:02:24.042Z,5.50
2023-05-05T07:04:55.253Z,5.47
2023-05-05T07:07:24.535Z,5.93
2023-05-05T07:09:52.241Z,5.93
2023-05-05T07:12:20.007Z,5.40
2023-05-05T07:14:47.864Z,5.53
2023-05-05T07:17:15.605Z,5.23
2023-05-05T07:19:44.222Z,5.03
2023-05-05T07:22:12.068Z,4.77
2023-05-05T07:24:41.768Z,4.57
2023-05-05T07:27:09.936Z,5.20
2023-05-05T07:29:37.646Z,4.90
2023-05-05T07:32:05.894Z,6.00
2023-05-05T07:34:34.560Z,5.03
2023-05-05T07:37:03.415Z,4.53
2023-05-05T07:39:31.179Z,4.47
2023-05-05T07:42:01.574Z,3.77
2023-05-05T07:44:29.441Z,3.40
2023-05-05T07:46:57.258Z,3.60
2023-05-05T07:49:25.315Z,4.37
2023-05-05T07:51:53.136Z,3.97
2023-05-05T07:54:20.984Z,3.47
2023-05-05T07:56:48.795Z,3.70
2023-05-05T07:59:18.035Z,3.43
2023-05-05T08:01:45.760Z,4.00
2023-05-05T08:04:13.899Z,3.73
2023-05-05T08:06:41.675Z,4.27
2023-05-05T08:09:09.599Z,4.30
2023-05-05T08:11:37.319Z,3.47
2023-05-05T08:14:05.100Z,3.87
2023-05-05T08:16:34.806Z,3.53
2023-05-05T08:19:06.291Z,4.67
2023-05-05T08:21:37.635Z,3.20
2023-05-05T08:24:05.535Z,3.20
2023-05-05T08:26:35.426Z,3.07
2023-05-05T08:29:03.422Z,2.90
2023-05-05T08:31:36.856Z,2.33
2023-05-05T08:34:05.723Z,2.50
2023-05-05T08:36:33.518Z,1.83
2023-05-05T08:39:01.472Z,2.03
2023-05-05T08:41:29.566Z,1.77
2023-05-05T08:43:57.366Z,1.50
2023-05-05T08:46:26.692Z,1.77
2023-05-05T08:48:56.883Z,1.80
2023-05-05T08:51:31.132Z,1.60
2023-05-05T08:54:03.183Z,1.50
2023-05-05T08:56:34.289Z,2.07
2023-05-05T08:59:03.620Z,1.37
2023-05-05T09:01:33.136Z,1.53
2023-05-05T09:04:04.276Z,2.17
2023-05-05T09:06:33.784Z,3.60
2023-05-05T09:09:02.224Z,3.23
2023-05-05T09:11:29.998Z,5.87
2023-05-05T09:13:57.754Z,2.23
2023-05-05T09:16:25.599Z,2.50
2023-05-05T09:19:03.753Z,2.20
2023-05-05T09:21:32.355Z,2.50
2023-05-05T09:24:11.164Z,2.33
2023-05-05T09:26:42.243Z,2.40
2023-05-05T09:29:10.278Z,2.57
2023-05-05T09:31:38.598Z,2.23
2023-05-05T09:34:17.677Z,2.40
2023-05-05T09:36:47.902Z,2.13
2023-05-05T09:39:17.819Z,1.70
2023-05-05T09:41:46.890Z,1.70
2023-05-05T09:44:17.064Z,1.80
2023-05-05T09:46:52.349Z,1.83
2023-05-05T09:49:25.344Z,2.33
2023-05-05T09:51:53.780Z,2.20
2023-05-05T09:54:26.136Z,1.80
2023-05-05T09:56:54.343Z,1.87
2023-05-05T09:59:22.478Z,2.00
2023-05-05T10:01:50.808Z,2.00
2023-05-05T10:04:28.393Z,1.87
2023-05-05T10:06:57.340Z,1.80
2023-05-05T10:09:25.522Z,2.30
2023-05-05T10:11:53.940Z,2.30
2023-05-05T10:14:21.950Z,1.80
2023-05-05T10:16:51.054Z,2.17
2023-05-05T10:19:20.540Z,2.10
2023-05-05T10:21:52.569Z,2.23
2023-05-05T10:24:31.751Z,1.97
2023-05-05T10:27:06.291Z,2.47
2023-05-05T10:29:40.951Z,2.40
2023-05-05T10:32:47.246Z,1.97
2023-05-05T10:35:09.942Z,2.80
2023-05-05T10:37:39.764Z,2.77
2023-05-05T10:40:10.602Z,2.70
2023-05-05T10:42:40.746Z,3.37
2023-05-05T10:45:09.270Z,2.80
2023-05-05T10:47:37.998Z,2.87
2023-05-05T10:50:12.815Z,3.10
2023-05-05T10:52:53.721Z,3.17
2023-05-05T10:55:27.760Z,2.83
2023-05-05T10:57:56.024Z,3.37
2023-05-05T11:00:52.724Z,3.40
2023-05-05T11:03:24.315Z,3.67
2023-05-05T11:06:19.037Z,4.00
2023-05-05T11:08:48.332Z,3.67
2023-05-05T11:11:16.206Z,3.97
2023-05-05T11:13:44.059Z,4.00
2023-05-05T11:16:44.793Z,3.73
2023-05-05T11:19:46.809Z,4.10
2023-05-05T11:22:16.420Z,3.77
2023-05-05T11:24:45.751Z,4.00
2023-05-05T11:27:13.638Z,4.07
2023-05-05T11:30:10.300Z,4.27
2023-05-05T11:32:38.576Z,3.53
2023-05-05T11:35:07.317Z,3.70
2023-05-05T11:37:37.698Z,4.60
2023-05-05T11:40:20.450Z,4.00
2023-05-05T11:42:48.345Z,3.90
2023-05-05T11:45:24.140Z,4.13
2023-05-05T11:47:52.052Z,3.47
2023-05-05T11:50:23.166Z,3.17
2023-05-05T11:52:51.105Z,3.20
2023-05-05T11:55:24.110Z,3.23
2023-05-05T11:57:52.239Z,2.90
2023-05-05T12:00:20.955Z,2.30
2023-05-05T12:02:58.449Z,2.20
2023-05-05T12:05:26.508Z,2.53
2023-05-05T12:07:58.730Z,1.73
2023-05-05T12:10:28.814Z,2.40
2023-05-05T12:12:56.722Z,1.57
2023-05-05T12:15:32.228Z,1.90
2023-05-05T12:18:02.340Z,1.80
2023-05-05T12:20:35.177Z,2.03
2023-05-05T12:23:04.777Z,2.37
2023-05-05T12:25:40.689Z,2.50
2023-05-05T12:28:09.841Z,2.30
2023-05-05T12:30:37.763Z,2.80
2023-05-05T12:33:07.582Z,2.77
2023-05-05T12:35:37.163Z,2.60
2023-05-05T12:38:05.244Z,2.60
2023-05-05T12:40:55.358Z,1.50
2023-05-05T12:43:28.709Z,1.63
2023-05-05T12:46:10.420Z,1.50
2023-05-05T12:48:47.938Z,1.50
2023-05-05T12:51:19.664Z,1.50
2023-05-05T12:53:48.122Z,1.43
2023-05-05T12:56:36.906Z,1.20
2023-05-05T12:59:06.793Z,1.27
2023-05-05T13:01:35.563Z,1.20
2023-05-05T13:04:11.688Z,1.40
2023-05-05T13:06:40.718Z,1.00
2023-05-05T13:09:10.156Z,1.20
2023-05-05T13:11:40.603Z,1.00
2023-05-05T13:14:08.933Z,1.10
2023-05-05T13:16:36.725Z,1.27
2023-05-05T13:19:04.728Z,1.13
2023-05-05T13:21:32.700Z,1.33
2023-05-05T13:24:11.991Z,1.50
2023-05-05T13:26:55.972Z,1.50
2023-05-05T13:29:29.045Z,1.20
2023-05-05T13:32:01.194Z,1.07
2023-05-05T13:34:29.007Z,0.90
2023-05-05T13:36:56.854Z,1.20
2023-05-05T13:39:24.542Z,0.90
2023-05-05T13:41:53.666Z,1.27
2023-05-05T13:44:21.924Z,0.90
2023-05-05T13:46:49.928Z,1.00
2023-05-05T13:49:18.006Z,1.07
2023-05-05T13:51:46.880Z,0.97
2023-05-05T13:54:15.023Z,1.17
2023-05-05T13:56:43.898Z,0.90
2023-05-05T13:59:13.246Z,1.27
2023-05-05T14:01:41.111Z,1.30
2023-05-05T14:04:09.408Z,1.63
2023-05-05T14:06:37.217Z,1.67
2023-05-05T14:09:06.458Z,1.30
2023-05-05T14:11:34.688Z,1.50
2023-05-05T14:14:02.714Z,1.20
2023-05-05T14:16:32.014Z,1.20
2023-05-05T14:18:59.839Z,1.40
2023-05-05T14:21:27.666Z,1.30
2023-05-05T14:23:55.431Z,1.20
2023-05-05T14:26:23.221Z,1.30
2023-05-05T14:28:51.208Z,1.47
2023-05-05T14:31:19.005Z,1.50
2023-05-05T14:33:48.109Z,1.50
2023-05-05T14:36:15.961Z,1.67
2023-05-05T14:38:43.929Z,1.77
2023-05-05T14:41:11.891Z,1.87
2023-05-05T14:43:39.666Z,1.75
2023-05-05T14:46:07.788Z,1.80
2023-05-05T14:48:36.142Z,2.00
2023-05-05T14:51:06.335Z,2.10
2023-05-05T14:53:35.287Z,1.60
2023-05-05T14:56:03.286Z,2.20
2023-05-05T14:58:31.384Z,2.67
2023-05-05T15:01:00.365Z,2.90
2023-05-05T15:03:28.491Z,2.80
2023-05-05T15:05:56.399Z,2.53
2023-05-05T15:08:25.645Z,2.40
2023-05-05T15:10:53.469Z,3.10
2023-05-05T15:13:21.297Z,3.60
2023-05-05T15:15:50.011Z,3.70
2023-05-05T15:18:18.010Z,3.63
2023-05-05T15:20:45.853Z,4.33
2023-05-05T15:23:13.651Z,4.07
2023-05-05T15:25:42.759Z,4.30
2023-05-05T15:28:10.459Z,4.28
2023-05-05T15:30:38.288Z,4.18
2023-05-05T15:33:06.192Z,4.30
2023-05-05T15:35:34.054Z,4.60
2023-05-05T15:38:01.894Z,4.18
2023-05-05T15:40:29.710Z,4.73
2023-05-05T15:42:58.808Z,5.50
2023-05-05T15:45:26.726Z,4.57
2023-05-05T15:47:54.512Z,4.28
2023-05-05T15:50:23.333Z,4.30
2023-05-05T15:52:51.184Z,4.90
2023-05-05T15:55:18.962Z,5.15
2023-05-05T16:01:11.861Z,5.43
2023-05-05T16:03:39.742Z,5.67
2023-05-05T16:06:10.046Z,4.60
2023-05-05T16:08:37.776Z,5.07
2023-05-05T16:11:05.761Z,4.65
2023-05-05T16:13:33.825Z,4.35
2023-05-05T16:16:01.505Z,4.20
2023-05-05T16:18:30.725Z,4.63
2023-05-05T16:20:58.537Z,4.32
2023-05-05T16:23:26.508Z,3.65
2023-05-05T16:25:54.495Z,4.30
2023-05-05T16:28:22.234Z,4.47
2023-05-05T16:30:51.505Z,4.38
2023-05-05T16:33:20.074Z,4.53
2023-05-05T16:35:49.551Z,4.20
2023-05-05T16:38:18.157Z,4.10
2023-05-05T16:40:46.654Z,4.38
2023-05-05T16:43:14.411Z,3.83
2023-05-05T16:45:43.427Z,4.15
2023-05-05T16:48:12.326Z,4.20
2023-05-05T16:50:43.063Z,4.57
2023-05-05T16:53:12.372Z,4.80
2023-05-05T16:55:41.206Z,4.47
2023-05-05T16:58:09.749Z,4.53
2023-05-05T17:00:40.497Z,3.92
2023-05-05T17:03:08.607Z,4.13
2023-05-05T17:05:36.651Z,5.95
2023-05-05T17:08:05.242Z,4.60
2023-05-05T17:10:34.976Z,4.50
2023-05-05T17:13:02.883Z,4.13
2023-05-05T17:15:42.091Z,3.80
2023-05-05T17:18:10.549Z,4.35
2023-05-05T17:20:38.322Z,4.32
2023-05-05T17:23:11.208Z,4.10
2023-05-05T17:25:40.896Z,3.38
2023-05-05T17:28:10.506Z,3.58
2023-05-05T17:30:41.540Z,3.97
2023-05-05T17:33:09.599Z,3.65
2023-05-05T17:35:39.164Z,3.45
2023-05-05T17:38:06.874Z,3.50
2023-05-05T17:40:36.233Z,3.75
2023-05-05T17:43:05.415Z,3.75
2023-05-05T17:45:33.368Z,3.60
2023-05-05T17:48:03.437Z,4.03
2023-05-05T17:50:31.126Z,3.72
2023-05-05T17:52:58.883Z,3.78
2023-05-05T17:55:26.601Z,4.40
2023-05-05T17:57:55.882Z,3.75
2023-05-05T18:00:25.261Z,3.55
2023-05-05T18:02:53.272Z,3.92
2023-05-05T18:05:21.245Z,3.50
2023-05-05T18:07:49.058Z,4.00
2023-05-05T18:10:16.820Z,3.97
2023-05-05T18:12:44.638Z,4.10
2023-05-05T18:15:13.111Z,3.55
2023-05-05T18:17:42.400Z,3.58
2023-05-05T18:20:11.303Z,3.92
2023-05-05T18:22:39.261Z,3.65
2023-05-05T18:25:08.493Z,3.65
2023-05-05T18:27:36.571Z,3.80
2023-05-05T18:30:06.083Z,3.55
2023-05-05T18:32:34.108Z,3.47
2023-05-05T18:35:03.374Z,3.70
2023-05-05T18:37:31.166Z,3.85
2023-05-05T18:39:58.956Z,3.60
2023-05-05T18:42:26.878Z,3.85
2023-05-05T18:44:54.691Z,3.50
2023-05-05T18:47:22.543Z,4.30
2023-05-05T18:49:50.350Z,3.78
2023-05-05T18:52:19.460Z,3.90
2023-05-05T18:54:47.199Z,3.92
2023-05-05T18:57:14.904Z,3.67
2023-05-05T18:59:42.611Z,4.07
2023-05-05T19:02:10.488Z,3.60
2023-05-05T19:04:38.428Z,3.40
2023-05-05T19:07:06.249Z,3.35
2023-05-05T19:09:36.098Z,3.55
2023-05-05T19:12:04.325Z,3.40
2023-05-05T19:14:32.148Z,3.97
2023-05-05T19:17:00.214Z,3.70
2023-05-05T19:19:28.079Z,3.72
2023-05-05T19:21:55.934Z,3.80
2023-05-05T19:24:23.706Z,4.20
2023-05-05T19:26:53.200Z,4.13
2023-05-05T19:29:20.917Z,4.37
2023-05-05T19:31:48.784Z,4.17
2023-05-05T19:34:16.739Z,3.87
2023-05-05T19:36:44.498Z,4.40
2023-05-05T19:39:13.819Z,4.25
2023-05-05T19:41:43.472Z,4.57
2023-05-05T19:44:14.414Z,4.47
2023-05-05T19:46:42.471Z,4.97
2023-05-05T19:49:10.361Z,4.27
2023-05-05T19:51:38.374Z,4.57
2023-05-05T19:54:06.288Z,4.80
2023-05-05T19:56:34.064Z,4.60
2023-05-05T19:59:05.070Z,4.60
2023-05-05T20:01:36.726Z,5.20
2023-05-05T20:04:04.808Z,4.37
2023-05-05T20:06:33.199Z,4.97
2023-05-05T20:09:01.259Z,4.60
2023-05-05T20:11:33.307Z,4.73
2023-05-05T20:14:01.379Z,4.37
2023-05-05T20:16:29.331Z,4.57
2023-05-05T20:18:58.646Z,4.30
2023-05-05T20:21:26.747Z,4.10
2023-05-05T20:23:55.123Z,4.93
2023-05-05T20:26:24.311Z,4.63
2023-05-05T20:28:52.173Z,5.00
2023-05-05T20:31:20.036Z,5.47
2023-05-05T20:33:48.323Z,5.30
2023-05-05T20:36:18.536Z,4.93
2023-05-05T20:38:46.771Z,5.67
2023-05-05T20:41:14.529Z,4.93
2023-05-05T20:43:42.255Z,5.40
2023-05-05T20:46:13.037Z,4.83
2023-05-05T20:48:43.041Z,4.47
2023-05-05T20:51:11.227Z,4.97
2023-05-05T20:53:40.682Z,4.80
2023-05-05T20:56:09.233Z,4.40
2023-05-05T20:58:37.248Z,4.87
2023-05-05T21:01:05.093Z,4.33
2023-05-05T21:03:32.975Z,4.90
2023-05-05T21:06:00.909Z,4.73
2023-05-05T21:08:30.197Z,4.80
2023-05-05T21:10:59.323Z,5.77
2023-05-05T21:13:27.075Z,4.80
2023-05-05T21:15:54.735Z,4.80
2023-05-05T21:18:22.540Z,4.90
2023-05-05T21:20:50.702Z,5.03
2023-05-05T21:23:18.416Z,5.00
2023-05-05T21:25:46.195Z,4.93
2023-05-05T21:28:15.391Z,5.60
2023-05-05T21:30:43.094Z,5.50
2023-05-05T21:33:10.919Z,5.80
2023-05-05T21:35:38.791Z,5.27
2023-05-05T21:38:06.573Z,5.60
2023-05-05T21:40:34.319Z,5.33
2023-05-05T21:43:02.098Z,5.47
2023-05-05T21:45:31.292Z,5.80
2023-05-05T21:47:59.136Z,5.80
2023-05-05T21:50:28.242Z,5.73
2023-05-05T21:52:57.269Z,5.87
2023-05-05T21:55:25.168Z,5.43
2023-05-05T21:57:52.851Z,6.23
2023-05-05T22:00:20.862Z,6.10
2023-05-05T22:02:49.996Z,6.07
2023-05-05T22:05:17.889Z,5.93
2023-05-05T22:07:46.077Z,5.90
2023-05-05T22:10:13.745Z,5.70
2023-05-05T22:12:41.526Z,5.90
2023-05-05T22:15:10.379Z,6.00
2023-05-05T22:17:38.360Z,6.30
2023-05-05T22:20:09.112Z,6.00
2023-05-05T22:22:37.209Z,6.40
2023-05-05T22:25:05.486Z,5.90
2023-05-05T22:27:33.314Z,6.87
2023-05-05T22:30:01.080Z,6.70
2023-05-05T22:32:31.452Z,5.90
2023-05-05T22:34:59.236Z,6.17
2023-05-05T22:37:28.372Z,6.30
2023-05-05T22:39:56.277Z,6.60
2023-05-05T22:42:24.113Z,6.90
2023-05-05T22:44:52.043Z,6.43
2023-05-05T22:47:20.076Z,6.60
2023-05-05T22:49:48.360Z,6.83
2023-05-05T22:52:16.173Z,6.30
2023-05-05T22:54:45.353Z,6.43
2023-05-05T22:57:13.107Z,7.30
2023-05-05T22:59:40.916Z,7.17
2023-05-05T23:02:08.687Z,6.33
2023-05-05T23:04:36.539Z,6.97
2023-05-05T23:07:04.320Z,7.23
2023-05-05T23:09:32.052Z,6.87
2023-05-05T23:12:01.851Z,7.93
2023-05-05T23:14:29.620Z,6.50
2023-05-05T23:16:57.361Z,6.97
2023-05-05T23:19:25.236Z,6.63
2023-05-05T23:21:53.797Z,6.93
2023-05-05T23:24:21.725Z,6.80
2023-05-05T23:26:49.609Z,6.80
2023-05-05T23:29:18.795Z,7.73
2023-05-05T23:31:46.979Z,7.07
2023-05-05T23:34:15.312Z,7.43
2023-05-05T23:36:43.144Z,7.10
2023-05-05T23:39:11.097Z,7.20
2023-05-05T23:41:38.905Z,7.27
2023-05-05T23:44:06.722Z,6.83
2023-05-05T23:46:36.087Z,7.10
2023-05-05T23:49:03.958Z,6.53
2023-05-05T23:51:32.031Z,6.97
2023-05-05T23:53:59.788Z,7.43
2023-05-05T23:56:27.624Z,6.83
2023-05-05T23:58:56.182Z,7.03
